Time;durP1;ratioP1;P1;durP2;ratioP2;P2;SDS_P1;SDS_P2;PMS_P1;PMS_P2;Temp;Humidity;BMP_temperature;BMP_pressure;BME280_temperature;BME280_humidity;BME280_pressure;Samples;Min_cycle;Max_cycle;Signal;HPM_P1;HPM_P2
2023/06/11 00:01:40;;;;;;;16.02;6.18;;;17.80;99.90;;;;;;5055438;28;20059;-71
2023/06/11 00:04:06;;;;;;;13.30;6.07;;;;;;;;;;5086747;28;20048;-71
2023/06/11 00:06:32;;;;;;;11.68;6.07;;;;;;;;;;5090635;28;20039;-70
2023/06/11 00:08:58;;;;;;;16.88;6.55;;;19.10;99.90;;;;;;5090907;28;20545;-70
2023/06/11 00:11:25;;;;;;;14.15;6.13;;;;;;;;;;5073108;28;20036;-71
2023/06/11 00:13:53;;;;;;;17.90;5.82;;;17.30;99.90;;;;;;5090988;28;20558;-70
2023/06/11 00:16:18;;;;;;;15.27;6.72;;;19.50;99.90;;;;;;5073996;28;20373;-71
2023/06/11 00:18:45;;;;;;;13.90;6.20;;;17.50;99.90;;;;;;5073877;28;20047;-71
2023/06/11 00:21:12;;;;;;;14.57;6.20;;;18.10;99.90;;;;;;5082896;28;20037;-71
2023/06/11 00:23:38;;;;;;;14.25;6.05;;;19.60;99.90;;;;;;5072502;28;20060;-71
2023/06/11 00:26:05;;;;;;;15.73;6.30;;;19.10;99.90;;;;;;5072229;28;20476;-71
2023/06/11 00:28:31;;;;;;;14.23;6.00;;;;;;;;;;5072646;28;20419;-71
2023/06/11 00:30:57;;;;;;;11.90;6.10;;;19.60;99.90;;;;;;5077068;28;20040;-71
2023/06/11 00:33:23;;;;;;;12.98;6.35;;;;;;;;;;5055518;28;20146;-71
2023/06/11 00:35:50;;;;;;;10.32;6.30;;;;;;;;;;5079270;28;20044;-71
2023/06/11 00:38:15;;;;;;;12.32;6.28;;;19.40;99.90;;;;;;5073541;28;20388;-70
2023/06/11 00:40:41;;;;;;;13.38;6.25;;;19.40;99.90;;;;;;5054474;28;20063;-71
2023/06/11 00:43:10;;;;;;;17.33;6.65;;;;;;;;;;5071806;28;20047;-70
2023/06/11 00:45:37;;;;;;;14.60;6.00;;;;;;;;;;5072257;28;20376;-71
2023/06/11 00:48:02;;;;;;;19.05;6.90;;;19.40;99.90;;;;;;5072229;28;20102;-70
2023/06/11 00:50:29;;;;;;;16.98;6.57;;;;;;;;;;5056436;28;20036;-70
2023/06/11 00:52:55;;;;;;;15.98;7.05;;;19.50;99.90;;;;;;5072928;28;20039;-71
2023/06/11 00:55:21;;;;;;;17.73;7.18;;;19.40;99.90;;;;;;5086579;28;20036;-70
2023/06/11 00:57:48;;;;;;;14.15;6.80;;;19.40;99.90;;;;;;5089016;28;20105;-71
2023/06/11 01:00:14;;;;;;;17.58;7.43;;;19.50;99.90;;;;;;5088652;28;20040;-70
2023/06/11 01:02:53;;;;;;;18.75;7.47;;;18.20;99.90;;;;;;5090248;28;20036;-70
2023/06/11 01:05:21;;;;;;;17.50;7.15;;;19.20;99.90;;;;;;5090120;28;20455;-70
2023/06/11 01:07:51;;;;;;;12.48;6.60;;;17.20;99.90;;;;;;5039823;28;20124;-70
2023/06/11 01:10:18;;;;;;;14.50;7.30;;;17.40;99.90;;;;;;5071816;28;20045;-70
2023/06/11 01:12:45;;;;;;;12.98;7.25;;;18.40;99.90;;;;;;5071465;28;20039;-71
2023/06/11 01:15:14;;;;;;;12.40;6.65;;;;;;;;;;5088431;28;20036;-71
2023/06/11 01:17:45;;;;;;;18.05;7.25;;;18.90;99.90;;;;;;5089871;28;20032;-71
2023/06/11 01:20:16;;;;;;;9.70;6.68;;;18.50;99.90;;;;;;5077145;28;20036;-70
2023/06/11 01:22:42;;;;;;;13.52;6.93;;;;;;;;;;5081752;28;20039;-70
2023/06/11 01:25:17;;;;;;;11.73;7.22;;;17.20;99.90;;;;;;5071538;28;20037;-71
2023/06/11 01:28:03;;;;;;;16.13;7.43;;;17.20;99.90;;;;;;5079029;28;20028;-70
2023/06/11 01:30:32;;;;;;;14.65;7.70;;;19.20;99.90;;;;;;5083244;28;20078;-70
2023/06/11 01:33:00;;;;;;;16.70;7.50;;;18.40;99.90;;;;;;5071495;28;20550;-70
2023/06/11 01:35:27;;;;;;;12.50;7.18;;;;;;;;;;5071435;28;20036;-70
2023/06/11 01:37:57;;;;;;;12.60;7.72;;;17.90;99.90;;;;;;5055891;28;20044;-71
2023/06/11 01:40:27;;;;;;;12.93;6.95;;;17.60;99.90;;;;;;5065645;28;20032;-71
2023/06/11 01:42:53;;;;;;;12.48;7.10;;;17.10;99.90;;;;;;5075356;28;20472;-70
2023/06/11 01:45:21;;;;;;;16.52;7.95;;;18.20;99.90;;;;;;5081182;28;20036;-70
2023/06/11 01:47:48;;;;;;;13.85;7.68;;;16.90;99.90;;;;;;5064455;28;20123;-70
2023/06/11 01:50:15;;;;;;;12.80;7.90;;;16.90;99.90;;;;;;5085538;28;20047;-70
2023/06/11 01:52:41;;;;;;;15.68;7.70;;;;;;;;;;5072538;28;20177;-71
2023/06/11 01:55:08;;;;;;;17.50;7.97;;;16.90;99.90;;;;;;5076587;28;20049;-70
2023/06/11 01:57:34;;;;;;;13.23;7.72;;;18.60;99.90;;;;;;5081753;28;20059;-71
2023/06/11 02:00:00;;;;;;;13.15;8.40;;;18.10;99.90;;;;;;5086912;28;20040;-71
2023/06/11 02:02:27;;;;;;;17.73;7.38;;;17.90;99.90;;;;;;5071454;28;20064;-71
2023/06/11 02:04:53;;;;;;;14.35;8.45;;;;;;;;;;5071267;28;20032;-70
2023/06/11 02:07:19;;;;;;;16.33;8.27;;;18.90;99.90;;;;;;5072623;28;20044;-70
2023/06/11 02:09:45;;;;;;;14.25;8.18;;;17.10;99.90;;;;;;5073966;28;20484;-70
2023/06/11 02:12:11;;;;;;;12.77;8.20;;;17.00;99.90;;;;;;5076311;28;20054;-71
2023/06/11 02:14:37;;;;;;;15.52;7.93;;;18.60;99.90;;;;;;5093029;28;20101;-70
2023/06/11 02:17:02;;;;;;;13.30;8.65;;;16.60;99.90;;;;;;5074597;28;20036;-70
2023/06/11 02:19:28;;;;;;;14.75;8.90;;;;;;;;;;5075700;28;20514;-71
2023/06/11 02:21:54;;;;;;;16.65;8.65;;;16.90;99.90;;;;;;5074681;28;20500;-71
2023/06/11 02:24:20;;;;;;;10.90;8.27;;;18.90;99.90;;;;;;5074529;28;20120;-71
2023/06/11 02:26:46;;;;;;;13.25;8.63;;;;;;;;;;5077279;28;20048;-69
2023/06/11 02:29:12;;;;;;;15.07;8.68;;;;;;;;;;5093225;28;20042;-70
2023/06/11 02:31:38;;;;;;;14.02;9.10;;;16.40;99.90;;;;;;5059449;28;20052;-70
2023/06/11 02:34:04;;;;;;;13.75;8.32;;;;;;;;;;5074772;28;20052;-70
2023/06/11 02:36:30;;;;;;;13.35;8.65;;;;;;;;;;5074427;28;20483;-70
2023/06/11 02:38:56;;;;;;;14.43;8.95;;;;;;;;;;5079032;28;20492;-70
2023/06/11 02:41:22;;;;;;;13.18;8.55;;;18.70;99.90;;;;;;5074425;28;20054;-71
2023/06/11 02:43:48;;;;;;;12.45;8.43;;;;;;;;;;5064648;28;20036;-70
2023/06/11 02:46:14;;;;;;;13.38;9.35;;;;;;;;;;5075724;28;20123;-73
2023/06/11 02:48:40;;;;;;;14.40;8.77;;;;;;;;;;5064106;28;20040;-74
2023/06/11 02:51:06;;;;;;;12.77;8.93;;;17.70;99.90;;;;;;5084422;28;20046;-74
2023/06/11 02:53:32;;;;;;;14.15;10.57;;;;;;;;;;5058051;28;20040;-74
2023/06/11 02:55:58;;;;;;;12.75;8.80;;;16.20;99.90;;;;;;5090301;28;20085;-74
2023/06/11 02:58:24;;;;;;;12.27;8.70;;;;;;;;;;5078294;28;20044;-74
2023/06/11 03:00:50;;;;;;;13.18;8.55;;;;;;;;;;5085261;28;20263;-74
2023/06/11 03:03:16;;;;;;;10.77;8.93;;;;;;;;;;5067633;28;20036;-74
2023/06/11 03:05:42;;;;;;;12.45;8.80;;;18.40;99.90;;;;;;5084008;28;20037;-74
2023/06/11 03:08:08;;;;;;;11.43;8.70;;;;;;;;;;5082257;28;20101;-74
2023/06/11 03:10:34;;;;;;;11.45;8.13;;;;;;;;;;5072493;28;20040;-74
2023/06/11 03:13:00;;;;;;;12.75;8.52;;;;;;;;;;5063501;28;20036;-74
2023/06/11 03:15:26;;;;;;;13.23;8.48;;;;;;;;;;5087304;28;20067;-73
2023/06/11 03:17:52;;;;;;;12.68;8.95;;;18.50;99.90;;;;;;5069939;28;20037;-74
2023/06/11 03:20:18;;;;;;;17.27;9.20;;;;;;;;;;5076053;28;20040;-73
2023/06/11 03:22:43;;;;;;;12.88;9.38;;;17.00;99.90;;;;;;5080581;28;20040;-74
2023/06/11 03:25:10;;;;;;;11.75;8.85;;;;;;;;;;5085114;28;20166;-74
2023/06/11 03:27:37;;;;;;;15.05;9.55;;;17.40;99.90;;;;;;5082803;28;20036;-74
2023/06/11 03:30:03;;;;;;;13.07;8.55;;;;;;;;;;5063169;28;20033;-74
2023/06/11 03:32:29;;;;;;;15.00;9.80;;;17.10;99.90;;;;;;5059279;28;20036;-74
2023/06/11 03:34:55;;;;;;;13.45;8.85;;;;;;;;;;5083960;28;20032;-74
2023/06/11 03:37:21;;;;;;;12.45;9.30;;;;;;;;;;5081956;28;20434;-74
2023/06/11 03:39:47;;;;;;;14.80;9.68;;;18.00;99.90;;;;;;5063425;28;20040;-74
2023/06/11 03:42:13;;;;;;;12.57;9.40;;;;;;;;;;5054667;28;20510;-74
2023/06/11 03:44:39;;;;;;;12.43;9.48;;;;;;;;;;5080316;28;20055;-73
2023/06/11 03:47:05;;;;;;;10.80;8.88;;;;;;;;;;5063382;28;20079;-73
2023/06/11 03:49:31;;;;;;;15.90;9.30;;;16.40;99.90;;;;;;5080246;28;20131;-73
2023/06/11 03:51:57;;;;;;;12.98;9.80;;;16.80;99.90;;;;;;5053497;28;20875;-73
2023/06/11 03:54:23;;;;;;;12.13;8.90;;;;;;;;;;5080504;28;20046;-73
2023/06/11 03:56:49;;;;;;;14.52;9.60;;;;;;;;;;5078544;28;20048;-74
2023/06/11 03:59:15;;;;;;;14.23;9.57;;;16.40;99.90;;;;;;5074022;28;20095;-73
2023/06/11 04:01:41;;;;;;;12.07;9.57;;;;;;;;;;5087120;28;20488;-73
2023/06/11 04:04:07;;;;;;;12.13;9.70;;;16.80;99.90;;;;;;5080200;28;20407;-73
2023/06/11 04:06:40;;;;;;;13.65;8.95;;;16.10;99.90;;;;;;5085438;28;20055;-73
2023/06/11 04:09:06;;;;;;;12.73;8.63;;;17.10;99.90;;;;;;5089114;28;20128;-74
2023/06/11 04:11:32;;;;;;;11.82;9.43;;;18.10;99.90;;;;;;5059497;28;20068;-73
2023/06/11 04:13:58;;;;;;;10.65;9.55;;;18.10;99.90;;;;;;5074292;28;20087;-72
2023/06/11 04:16:24;;;;;;;12.40;9.48;;;;;;;;;;5076172;28;20040;-72
2023/06/11 04:18:50;;;;;;;10.40;9.02;;;;;;;;;;5080568;28;20036;-73
2023/06/11 04:21:16;;;;;;;12.52;9.30;;;16.20;99.90;;;;;;5080105;28;20523;-73
2023/06/11 04:23:42;;;;;;;14.80;9.75;;;17.20;99.90;;;;;;5037567;28;20033;-73
2023/06/11 04:26:09;;;;;;;16.52;9.70;;;;;;;;;;5073379;28;20032;-73
2023/06/11 04:28:36;;;;;;;12.30;9.65;;;;;;;;;;5077631;28;20125;-73
2023/06/11 04:31:06;;;;;;;13.52;9.38;;;17.30;99.90;;;;;;5080781;28;20056;-72
2023/06/11 04:33:32;;;;;;;11.98;9.90;;;18.60;99.90;;;;;;5075959;28;20063;-72
2023/06/11 04:36:05;;;;;;;15.02;10.65;;;16.10;99.90;;;;;;5079893;28;20445;-73
2023/06/11 04:38:32;;;;;;;10.93;9.23;;;17.20;99.90;;;;;;5087018;28;20043;-72
2023/06/11 04:40:58;;;;;;;11.45;9.63;;;16.00;99.90;;;;;;5089839;28;20048;-72
2023/06/11 04:43:24;;;;;;;14.38;10.18;;;18.20;99.90;;;;;;5082919;28;20038;-73
2023/06/11 04:45:56;;;;;;;10.75;9.45;;;17.40;99.90;;;;;;5090283;28;20035;-73
2023/06/11 04:48:23;;;;;;;11.80;10.07;;;17.10;99.90;;;;;;5079744;28;20047;-73
2023/06/11 04:50:51;;;;;;;15.45;10.38;;;;;;;;;;5079308;28;20036;-73
2023/06/11 04:53:27;;;;;;;13.38;9.95;;;16.40;99.90;;;;;;5086426;28;20054;-72
2023/06/11 04:55:58;;;;;;;11.95;9.88;;;18.20;99.90;;;;;;5088126;28;20040;-72
2023/06/11 04:58:28;;;;;;;12.50;10.43;;;17.50;99.90;;;;;;5076913;28;20050;-72
2023/06/11 05:00:58;;;;;;;13.45;10.30;;;17.20;99.90;;;;;;5082224;28;20075;-72
2023/06/11 05:03:25;;;;;;;19.33;10.32;;;17.30;99.90;;;;;;5079116;28;20081;-72
2023/06/11 05:05:52;;;;;;;12.20;10.13;;;17.50;99.90;;;;;;5084840;28;20135;-73
2023/06/11 05:08:18;;;;;;;14.45;10.35;;;17.60;99.90;;;;;;5042072;28;20127;-72
2023/06/11 05:10:45;;;;;;;15.27;10.30;;;17.60;99.90;;;;;;5082597;28;20092;-72
2023/06/11 05:13:11;;;;;;;13.75;9.88;;;17.80;99.90;;;;;;5083376;28;20040;-72
2023/06/11 05:15:38;;;;;;;11.68;9.98;;;16.70;99.90;;;;;;5061499;28;20083;-72
2023/06/11 05:18:03;;;;;;;15.63;10.35;;;17.50;99.90;;;;;;5086201;28;20048;-73
2023/06/11 05:20:29;;;;;;;11.68;10.15;;;;;;;;;;5067218;28;20102;-72
2023/06/11 05:22:59;;;;;;;13.60;10.18;;;18.50;99.90;;;;;;5082918;28;20036;-72
2023/06/11 05:25:28;;;;;;;13.00;10.55;;;17.00;99.90;;;;;;5076837;28;20522;-72
2023/06/11 05:28:02;;;;;;;11.32;10.05;;;18.90;99.90;;;;;;5079381;28;20037;-73
2023/06/11 05:30:36;;;;;;;12.00;10.48;;;18.10;99.90;;;;;;5077609;28;20110;-72
2023/06/11 05:33:02;;;;;;;12.70;9.95;;;18.10;99.90;;;;;;5075710;28;20101;-72
2023/06/11 05:35:28;;;;;;;13.85;10.07;;;19.00;99.90;;;;;;5075749;28;20044;-72
2023/06/11 05:37:55;;;;;;;13.02;9.98;;;17.30;99.90;;;;;;5076006;28;20067;-72
2023/06/11 05:40:21;;;;;;;14.27;10.93;;;18.00;99.90;;;;;;5082073;28;20051;-72
2023/06/11 05:42:47;;;;;;;12.73;10.90;;;19.20;99.90;;;;;;5077873;28;20032;-72
2023/06/11 05:45:13;;;;;;;14.13;10.70;;;17.60;99.90;;;;;;5076635;28;20043;-72
2023/06/11 05:47:39;;;;;;;11.35;10.13;;;17.40;99.90;;;;;;5086636;28;20391;-72
2023/06/11 05:50:05;;;;;;;11.70;10.48;;;18.20;99.90;;;;;;5050011;28;20044;-72
2023/06/11 05:52:31;;;;;;;13.68;10.80;;;17.60;99.90;;;;;;5082170;28;20105;-72
2023/06/11 05:54:57;;;;;;;14.18;10.88;;;;;;;;;;5075294;28;20497;-72
2023/06/11 05:57:24;;;;;;;16.15;10.50;;;17.50;99.90;;;;;;5066747;28;20124;-69
2023/06/11 05:59:51;;;;;;;16.45;11.57;;;18.40;99.90;;;;;;5079877;28;20032;-69
2023/06/11 06:02:17;;;;;;;15.40;11.02;;;19.00;99.90;;;;;;5082625;28;20355;-70
2023/06/11 06:04:47;;;;;;;14.93;11.52;;;17.60;99.90;;;;;;5076932;28;20045;-69
2023/06/11 06:07:14;;;;;;;11.82;10.63;;;;;;;;;;5081763;28;20056;-69
2023/06/11 06:09:40;;;;;;;12.52;10.85;;;;;;;;;;5077545;28;20526;-69
2023/06/11 06:12:06;;;;;;;12.20;10.57;;;19.80;99.90;;;;;;5085078;28;20033;-69
2023/06/11 06:14:32;;;;;;;16.05;11.25;;;;;;;;;;5069818;28;20099;-69
2023/06/11 06:16:58;;;;;;;15.70;10.73;;;18.20;99.90;;;;;;5083768;28;20037;-69
2023/06/11 06:19:24;;;;;;;15.15;11.15;;;;;;;;;;5060506;28;20035;-69
2023/06/11 06:21:50;;;;;;;12.65;11.07;;;18.60;99.90;;;;;;5083667;28;20082;-69
2023/06/11 06:24:16;;;;;;;16.33;11.02;;;;;;;;;;5074675;28;20028;-68
2023/06/11 06:26:42;;;;;;;14.70;10.90;;;19.80;99.90;;;;;;5078224;28;20040;-68
2023/06/11 06:29:08;;;;;;;14.77;10.40;;;20.00;99.90;;;;;;5057798;28;20048;-69
2023/06/11 06:31:36;;;;;;;14.43;11.07;;;20.10;99.90;;;;;;5079604;28;20048;-69
2023/06/11 06:34:03;;;;;;;13.68;10.63;;;19.30;99.90;;;;;;5058987;28;20510;-69
2023/06/11 06:36:29;;;;;;;15.73;10.85;;;19.30;99.90;;;;;;5084445;28;20051;-69
2023/06/11 06:38:55;;;;;;;11.50;10.30;;;;;;;;;;5074736;28;20032;-69
2023/06/11 06:41:21;;;;;;;13.70;9.82;;;;;;;;;;5073329;28;20040;-69
2023/06/11 06:43:47;;;;;;;17.60;11.27;;;19.80;99.90;;;;;;5082003;28;20566;-69
2023/06/11 06:46:13;;;;;;;12.52;10.85;;;;;;;;;;5072782;28;20126;-69
2023/06/11 06:48:39;;;;;;;12.80;11.18;;;20.40;99.90;;;;;;5076233;28;20060;-69
2023/06/11 06:51:05;;;;;;;18.67;10.45;;;18.70;99.90;;;;;;5079660;28;20484;-69
2023/06/11 06:53:30;;;;;;;13.63;10.02;;;18.80;99.90;;;;;;5090454;28;20052;-69
2023/06/11 06:55:59;;;;;;;13.60;10.55;;;;;;;;;;5091551;28;20513;-68
2023/06/11 06:58:27;;;;;;;13.88;10.43;;;19.20;99.90;;;;;;5087713;28;20056;-69
2023/06/11 07:00:53;;;;;;;11.82;10.60;;;20.20;99.90;;;;;;5077863;28;20492;-69
2023/06/11 07:03:20;;;;;;;10.23;9.23;;;;;;;;;;5077330;28;20040;-68
2023/06/11 07:05:46;;;;;;;11.52;9.02;;;20.80;99.90;;;;;;5074358;28;20147;-68
2023/06/11 07:08:13;;;;;;;11.90;9.45;;;20.60;99.90;;;;;;5083291;28;20502;-68
2023/06/11 07:10:53;;;;;;;12.95;9.65;;;20.30;99.90;;;;;;5077972;28;20047;-69
2023/06/11 07:13:20;;;;;;;11.75;10.05;;;20.50;99.90;;;;;;5094072;28;20047;-68
2023/06/11 07:15:45;;;;;;;14.93;10.50;;;21.10;99.90;;;;;;5091440;28;20381;-68
2023/06/11 07:18:12;;;;;;;16.42;10.30;;;20.80;99.90;;;;;;5094104;28;20043;-68
2023/06/11 07:20:37;;;;;;;12.15;9.93;;;21.00;99.90;;;;;;5084566;28;20083;-73
2023/06/11 07:23:03;;;;;;;11.57;9.63;;;20.60;99.90;;;;;;5075696;28;20441;-72
2023/06/11 07:25:31;;;;;;;11.68;9.73;;;21.30;99.90;;;;;;5093844;28;20047;-72
2023/06/11 07:28:03;;;;;;;11.80;9.90;;;20.70;99.90;;;;;;5057960;28;20123;-72
2023/06/11 07:30:30;;;;;;;13.10;9.60;;;20.80;99.90;;;;;;5079251;28;20040;-73
2023/06/11 07:32:56;;;;;;;12.02;9.27;;;;;;;;;;5074954;28;20040;-72
2023/06/11 07:35:23;;;;;;;11.15;9.10;;;21.60;99.90;;;;;;5073256;28;20464;-72
2023/06/11 07:37:49;;;;;;;13.10;9.70;;;19.80;99.90;;;;;;5078183;28;20093;-72
2023/06/11 07:40:15;;;;;;;11.35;9.73;;;20.80;99.90;;;;;;5082357;28;20037;-72
2023/06/11 07:42:45;;;;;;;14.07;9.77;;;21.40;99.90;;;;;;5073381;28;20400;-72
2023/06/11 07:45:15;;;;;;;10.90;9.00;;;21.30;99.90;;;;;;5082163;28;20070;-72
2023/06/11 07:47:41;;;;;;;11.25;8.95;;;21.70;99.90;;;;;;5093361;28;20067;-72
2023/06/11 07:50:09;;;;;;;10.98;9.48;;;21.70;99.90;;;;;;5084788;28;20110;-72
2023/06/11 07:52:35;;;;;;;12.75;9.98;;;20.30;99.90;;;;;;5074396;28;20401;-72
2023/06/11 07:55:01;;;;;;;11.50;9.43;;;;;;;;;;5092835;28;20030;-72
2023/06/11 07:57:27;;;;;;;13.20;9.65;;;21.90;99.90;;;;;;5091182;28;20056;-72
2023/06/11 07:59:53;;;;;;;12.60;9.50;;;;;;;;;;5072278;28;20051;-72
2023/06/11 08:02:20;;;;;;;13.52;9.25;;;22.10;99.90;;;;;;5091756;28;20048;-72
2023/06/11 08:04:46;;;;;;;10.70;9.18;;;;;;;;;;5080151;28;20093;-72
2023/06/11 08:07:12;;;;;;;12.27;9.50;;;21.60;99.90;;;;;;5072573;28;20046;-71
2023/06/11 08:09:38;;;;;;;12.45;9.90;;;;;;;;;;5075133;28;20532;-72
2023/06/11 08:12:06;;;;;;;15.55;9.18;;;21.10;99.90;;;;;;5072630;28;20079;-72
2023/06/11 08:14:35;;;;;;;11.27;9.77;;;21.60;99.90;;;;;;5073678;28;20469;-72
2023/06/11 08:17:01;;;;;;;13.57;9.23;;;;;;;;;;5072379;28;20056;-72
2023/06/11 08:19:27;;;;;;;11.77;9.60;;;21.00;99.90;;;;;;5072062;28;20044;-71
2023/06/11 08:21:59;;;;;;;11.85;9.23;;;22.00;99.90;;;;;;5075164;28;20499;-71
2023/06/11 08:24:25;;;;;;;;;;;21.90;99.90;;;;;;5071731;28;20043;-71
2023/06/11 08:26:51;;;;;;;11.10;9.50;;;21.70;99.90;;;;;;5072516;28;19916;-71
2023/06/11 08:29:16;;;;;;;11.20;9.18;;;21.60;99.90;;;;;;5072288;28;20044;-71
2023/06/11 08:31:43;;;;;;;13.90;9.95;;;21.90;99.90;;;;;;5084115;28;20119;-68
2023/06/11 08:34:09;;;;;;;12.10;8.82;;;23.10;99.90;;;;;;5055415;28;20044;-68
2023/06/11 08:36:35;;;;;;;10.65;9.40;;;23.20;99.90;;;;;;5044857;28;20115;-68
2023/06/11 08:39:01;;;;;;;11.88;9.52;;;22.60;99.90;;;;;;5042345;28;20127;-68
2023/06/11 08:41:31;;;;;;;11.80;9.25;;;23.10;99.90;;;;;;5080813;28;20065;-68
2023/06/11 08:43:57;;;;;;;11.07;9.02;;;;;;;;;;5076064;28;20058;-68
2023/06/11 08:46:24;;;;;;;14.07;9.27;;;23.10;99.90;;;;;;5075348;28;20491;-68
2023/06/11 08:48:58;;;;;;;10.70;9.25;;;22.90;99.90;;;;;;5085021;28;20094;-68
2023/06/11 08:51:26;;;;;;;10.35;8.82;;;23.70;99.90;;;;;;5072063;28;20052;-68
2023/06/11 08:53:52;;;;;;;12.60;8.70;;;;;;;;;;5071897;28;20076;-68
2023/06/11 08:56:18;;;;;;;11.50;9.68;;;;;;;;;;5082607;28;20051;-68
2023/06/11 08:58:45;;;;;;;13.02;8.60;;;23.90;99.90;;;;;;5082926;28;20131;-68
2023/06/11 09:01:11;;;;;;;13.75;9.35;;;22.80;99.90;;;;;;5083149;28;20112;-68
2023/06/11 09:03:38;;;;;;;12.13;8.88;;;23.10;99.90;;;;;;5064013;28;20047;-71
2023/06/11 09:06:05;;;;;;;10.90;8.63;;;23.50;99.90;;;;;;5092157;28;20051;-72
2023/06/11 09:08:31;;;;;;;14.57;10.75;;;24.40;99.90;;;;;;5087604;28;20058;-72
2023/06/11 09:10:57;;;;;;;11.38;9.13;;;;;;;;;;5087020;28;20043;-72
2023/06/11 09:13:27;;;;;;;12.25;8.85;;;24.00;99.90;;;;;;5085842;28;20063;-72
2023/06/11 09:15:57;;;;;;;17.80;9.65;;;24.60;99.90;;;;;;5076421;28;20040;-72
2023/06/11 09:18:25;;;;;;;12.18;9.32;;;24.30;99.90;;;;;;5084049;28;20106;-69
2023/06/11 09:21:00;;;;;;;9.68;8.63;;;24.20;99.90;;;;;;5090976;28;20490;-69
2023/06/11 09:23:34;;;;;;;12.65;8.32;;;24.40;99.90;;;;;;5069405;28;20047;-72
2023/06/11 09:26:01;;;;;;;9.55;8.00;;;25.10;99.90;;;;;;5053314;28;20048;-70
2023/06/11 09:28:35;;;;;;;10.30;9.25;;;25.10;99.90;;;;;;5070390;28;20503;-69
2023/06/11 09:31:02;;;;;;;11.98;8.80;;;24.80;99.90;;;;;;5070539;28;20044;-70
2023/06/11 09:33:30;;;;;;;10.02;8.35;;;24.80;99.90;;;;;;5060838;28;20058;-69
2023/06/11 09:35:57;;;;;;;9.98;8.57;;;25.10;99.90;;;;;;5072414;28;20044;-69
2023/06/11 09:38:23;;;;;;;10.75;8.55;;;25.50;99.90;;;;;;5073067;28;20037;-70
2023/06/11 09:40:55;;;;;;;10.55;8.35;;;25.30;99.90;;;;;;5082141;28;20040;-69
2023/06/11 09:43:23;;;;;;;9.50;8.50;;;25.50;99.90;;;;;;5071796;28;20047;-73
2023/06/11 09:45:54;;;;;;;11.93;8.68;;;25.40;99.90;;;;;;5085921;28;20074;-73
2023/06/11 09:48:24;;;;;;;12.68;8.40;;;25.00;99.90;;;;;;5073940;28;20079;-74
2023/06/11 09:50:52;;;;;;;11.00;8.60;;;25.20;99.90;;;;;;5089548;28;20040;-74
2023/06/11 09:53:19;;;;;;;12.35;8.48;;;26.10;99.90;;;;;;5071559;28;20049;-75
2023/06/11 09:55:50;;;;;;;9.32;8.35;;;25.70;99.90;;;;;;5055759;28;20048;-74
2023/06/11 09:58:22;;;;;;;9.27;8.27;;;25.90;99.90;;;;;;5059275;28;20414;-74
2023/06/11 10:00:58;;;;;;;9.38;8.35;;;26.50;99.90;;;;;;5083032;28;20044;-74
2023/06/11 10:03:24;;;;;;;9.85;8.35;;;26.10;99.90;;;;;;5082795;28;20115;-74
2023/06/11 10:05:51;;;;;;;12.07;8.65;;;26.40;99.90;;;;;;5054773;28;20519;-75
2023/06/11 10:08:20;;;;;;;10.95;8.73;;;26.90;99.90;;;;;;5067592;28;20074;-74
2023/06/11 10:10:51;;;;;;;9.73;8.02;;;26.90;99.90;;;;;;5074793;28;20396;-72
2023/06/11 10:13:30;;;;;;;15.43;8.68;;;26.80;99.90;;;;;;5091329;28;20061;-74
2023/06/11 10:15:59;;;;;;;12.52;8.00;;;27.10;99.90;;;;;;5091818;28;20048;-73
2023/06/11 10:18:25;;;;;;;12.40;8.48;;;27.20;99.90;;;;;;5091490;28;20036;-72
2023/06/11 10:20:53;;;;;;;10.32;8.43;;;26.70;99.90;;;;;;5074891;28;20396;-72
2023/06/11 10:23:20;;;;;;;8.98;8.07;;;;;;;;;;5053532;28;20037;-72
2023/06/11 10:25:54;;;;;;;11.20;8.95;;;27.30;99.90;;;;;;5070016;28;20036;-72
2023/06/11 10:28:36;;;;;;;10.85;8.05;;;27.30;99.90;;;;;;5078377;28;20048;-72
2023/06/11 10:31:02;;;;;;;;;;;27.30;99.90;;;;;;5080473;28;20084;-73
2023/06/11 10:34:01;;;;;;;10.27;7.95;;;27.40;99.90;;;;;;5079688;28;20004;-73
2023/06/11 10:36:37;;;;;;;9.07;8.00;;;27.30;99.90;;;;;;5088347;28;20194;-73
2023/06/11 10:39:09;;;;;;;10.77;7.70;;;27.70;99.90;;;;;;5058587;28;20032;-72
2023/06/11 10:41:39;;;;;;;12.23;8.60;;;28.10;99.90;;;;;;5092192;28;20078;-72
2023/06/11 10:44:05;;;;;;;11.50;8.27;;;28.10;99.90;;;;;;5094320;28;20043;-72
2023/06/11 10:46:31;;;;;;;9.18;7.80;;;27.90;99.90;;;;;;5093170;28;20046;-72
2023/06/11 10:48:57;;;;;;;10.57;7.45;;;28.40;99.90;;;;;;5073903;28;20115;-73
2023/06/11 10:51:23;;;;;;;10.77;7.80;;;27.90;99.90;;;;;;5087933;28;20480;-72
2023/06/11 10:53:56;;;;;;;11.25;8.25;;;28.50;99.90;;;;;;5089370;28;20047;-72
2023/06/11 10:56:23;;;;;;;13.90;8.05;;;28.70;99.90;;;;;;5092029;28;20044;-72
2023/06/11 10:58:50;;;;;;;9.15;7.70;;;28.60;99.90;;;;;;5058418;28;20569;-72
2023/06/11 11:01:20;;;;;;;9.43;7.45;;;28.60;99.90;;;;;;5066408;28;20412;-72
2023/06/11 11:03:50;;;;;;;10.75;7.60;;;28.50;99.90;;;;;;5090502;28;20479;-72
2023/06/11 11:06:24;;;;;;;9.40;7.57;;;28.80;99.90;;;;;;5069631;28;20051;-72
2023/06/11 11:08:52;;;;;;;11.13;6.95;;;28.90;99.90;;;;;;5058382;28;20040;-72
2023/06/11 11:11:17;;;;;;;8.52;7.03;;;29.20;99.90;;;;;;5074856;28;20052;-70
2023/06/11 11:13:45;;;;;;;9.02;7.05;;;29.20;99.90;;;;;;5085838;28;20040;-72
2023/06/11 11:16:11;;;;;;;9.57;7.45;;;29.40;99.90;;;;;;5091262;28;20403;-71
2023/06/11 11:18:37;;;;;;;11.88;7.32;;;29.30;99.90;;;;;;5094517;28;20059;-69
2023/06/11 11:21:03;;;;;;;9.45;6.90;;;29.40;99.90;;;;;;5085621;28;20473;-69
2023/06/11 11:23:31;;;;;;;8.63;6.43;;;29.70;99.90;;;;;;5079557;28;20079;-69
2023/06/11 11:25:57;;;;;;;8.27;6.30;;;29.70;99.90;;;;;;5091168;28;20366;-69
2023/06/11 11:28:23;;;;;;;8.52;6.50;;;29.50;99.90;;;;;;5084121;28;20123;-73
2023/06/11 11:30:52;;;;;;;9.18;6.45;;;29.80;99.90;;;;;;5064726;28;20039;-69
2023/06/11 11:33:18;;;;;;;8.68;6.43;;;29.80;99.90;;;;;;5059922;28;20044;-69
2023/06/11 11:35:46;;;;;;;9.82;6.95;;;29.90;99.90;;;;;;5092728;28;20063;-70
2023/06/11 11:38:12;;;;;;;8.07;6.55;;;29.70;99.90;;;;;;5086243;28;20043;-70
2023/06/11 11:40:38;;;;;;;10.20;6.50;;;30.10;99.90;;;;;;5058792;28;20040;-68
2023/06/11 11:43:04;;;;;;;12.00;6.38;;;29.90;99.90;;;;;;5092994;28;20047;-68
2023/06/11 11:45:32;;;;;;;8.20;6.32;;;30.00;99.90;;;;;;5092697;28;20036;-68
2023/06/11 11:47:59;;;;;;;9.85;6.60;;;30.40;99.90;;;;;;5073438;28;20040;-72
2023/06/11 11:50:27;;;;;;;8.25;6.60;;;30.10;99.90;;;;;;5073237;28;20498;-73
2023/06/11 11:53:14;;;;;;;7.57;6.40;;;30.40;99.90;;;;;;5076966;28;20119;-73
2023/06/11 11:55:45;;;;;;;8.68;6.75;;;30.50;80.60;;;;;;5092677;28;20076;-73
2023/06/11 11:58:12;;;;;;;8.48;6.70;;;30.60;80.10;;;;;;5073820;28;20139;-73
2023/06/11 12:00:48;;;;;;;8.38;6.00;;;30.60;79.30;;;;;;5072668;28;20182;-73
2023/06/11 12:03:17;;;;;;;9.40;6.13;;;30.50;78.60;;;;;;5087354;28;20528;-73
2023/06/11 12:05:43;;;;;;;9.27;6.63;;;30.70;79.00;;;;;;5084264;28;20395;-73
2023/06/11 12:08:09;;;;;;;8.05;6.10;;;;;;;;;;5039553;28;20041;-74
2023/06/11 12:10:35;;;;;;;10.18;5.90;;;30.40;78.20;;;;;;5088307;28;20043;-73
2023/06/11 12:13:01;;;;;;;9.00;6.00;;;30.90;77.90;;;;;;5092896;28;20040;-73
2023/06/11 12:15:28;;;;;;;10.23;6.63;;;31.00;77.10;;;;;;5092848;28;20046;-73
2023/06/11 12:17:54;;;;;;;7.95;6.45;;;31.10;76.90;;;;;;5075811;28;20440;-73
2023/06/11 12:20:23;;;;;;;7.13;6.43;;;31.10;76.40;;;;;;5084494;28;20468;-72
2023/06/11 12:22:49;;;;;;;6.72;5.85;;;30.70;70.90;;;;;;5091420;28;20036;-72
2023/06/11 12:25:15;;;;;;;9.75;6.60;;;31.00;76.20;;;;;;5076364;28;20380;-73
2023/06/11 12:27:43;;;;;;;8.63;6.28;;;31.30;76.20;;;;;;5089940;28;20048;-72
2023/06/11 12:30:09;;;;;;;7.63;5.90;;;31.10;75.40;;;;;;5077719;28;20044;-74
2023/06/11 12:32:35;;;;;;;7.13;6.20;;;31.50;75.60;;;;;;5077938;28;20048;-74
2023/06/11 12:35:01;;;;;;;10.30;6.47;;;31.40;75.50;;;;;;5086105;28;20044;-74
2023/06/11 12:37:28;;;;;;;10.13;6.38;;;;;;;;;;5069806;28;20055;-74
2023/06/11 12:39:53;;;;;;;11.68;6.15;;;31.30;74.60;;;;;;5092892;28;20051;-74
2023/06/11 12:42:20;;;;;;;9.57;6.72;;;31.50;74.50;;;;;;5090501;28;20048;-73
2023/06/11 12:44:46;;;;;;;10.25;6.80;;;31.40;70.00;;;;;;5092323;28;20036;-73
2023/06/11 12:47:14;;;;;;;8.38;6.25;;;31.40;74.10;;;;;;5074025;28;20123;-74
2023/06/11 12:49:39;;;;;;;8.48;5.88;;;31.60;73.90;;;;;;5077177;28;20185;-73
2023/06/11 12:52:08;;;;;;;7.82;6.07;;;31.70;73.40;;;;;;5074533;28;20520;-73
2023/06/11 12:54:34;;;;;;;9.45;6.22;;;31.80;73.00;;;;;;5079844;28;20035;-73
2023/06/11 12:56:59;;;;;;;8.15;6.38;;;31.80;72.60;;;;;;5091431;28;20040;-73
2023/06/11 12:59:26;;;;;;;9.65;6.57;;;32.00;72.10;;;;;;5074920;28;20135;-74
2023/06/11 13:01:52;;;;;;;9.30;6.78;;;31.80;72.60;;;;;;5068041;28;20068;-74